Lewisville's Hourly Summary for Wednesday, March 15, 2017
Hour Temp
(f)
RH
(%)
Solar Rad.
(MJ/m2)
Rainfall
(in)
Wind
(mph)
3/15/2017 12:00 AM 53 46 0 0 1.82
3/15/2017 1:00 AM 51 45 0 0 7.46
3/15/2017 2:00 AM 48 51 0 0 6.75
3/15/2017 3:00 AM 47 52 0 0 6.59
3/15/2017 4:00 AM 46 55 0 0 6.88
3/15/2017 5:00 AM 46 56 0 0 6.83
3/15/2017 6:00 AM 45 59 0 0 7.03
3/15/2017 7:00 AM 45 60 0 0 5.19
3/15/2017 8:00 AM 44 63 0.01 0 6.2
3/15/2017 9:00 AM 45 65 0.24 0 5.81
3/15/2017 10:00 AM 46 60 0.69 0 6.56
3/15/2017 11:00 AM 49 57 1.29 0 6.57
3/15/2017 12:00 PM 50 56 1.17 0 6.92
3/15/2017 1:00 PM 52 49 1.99 0 6.54
3/15/2017 2:00 PM 55 46 2.49 0 6.88
3/15/2017 3:00 PM 58 43 2.61 0 6.28
3/15/2017 4:00 PM 61 41 2.3 0 6.1
3/15/2017 5:00 PM 62 42 1.74 0 6.09
3/15/2017 6:00 PM 63 43 1.12 0 6.64
3/15/2017 7:00 PM 63 45 0.5 0 7.39
3/15/2017 8:00 PM 61 48 0.05 0 5.82
3/15/2017 9:00 PM 59 53 0 0 3.83
3/15/2017 10:00 PM 58 56 0 0 3.66
3/15/2017 11:00 PM 57 57 0 0 3.7
Data Summary 52 52 16.20 0.00 5.98